sensor_id;sensor_type;location;lat;lon;timestamp;pressure;altitude;pressure_sealevel;temperature;humidity
57606;BME280;43430;48.204;11.556;2023-03-04T00:00:20;96409.56;;;0.60;100.00
57606;BME280;43430;48.204;11.556;2023-03-04T00:02:45;96410.06;;;0.63;100.00
57606;BME280;43430;48.204;11.556;2023-03-04T00:05:11;96417.34;;;0.60;100.00
57606;BME280;43430;48.204;11.556;2023-03-04T00:07:36;96411.47;;;0.58;100.00
57606;BME280;43430;48.204;11.556;2023-03-04T00:10:02;96414.88;;;0.58;100.00
57606;BME280;43430;48.204;11.556;2023-03-04T00:12:27;96414.00;;;0.50;100.00
57606;BME280;43430;48.204;11.556;2023-03-04T00:14:53;96410.72;;;0.47;100.00
57606;BME280;43430;48.204;11.556;2023-03-04T00:17:18;96411.03;;;0.44;100.00
57606;BME280;43430;48.204;11.556;2023-03-04T00:19:44;96418.00;;;0.44;100.00
57606;BME280;43430;48.204;11.556;2023-03-04T00:22:09;96412.00;;;0.43;100.00
57606;BME280;43430;48.204;11.556;2023-03-04T00:24:34;96412.81;;;0.44;100.00
57606;BME280;43430;48.204;11.556;2023-03-04T00:27:00;96413.25;;;0.39;100.00
57606;BME280;43430;48.204;11.556;2023-03-04T00:29:25;96413.72;;;0.35;100.00
57606;BME280;43430;48.204;11.556;2023-03-04T00:31:51;96420.13;;;0.31;100.00
57606;BME280;43430;48.204;11.556;2023-03-04T00:34:16;96428.06;;;0.29;100.00
57606;BME280;43430;48.204;11.556;2023-03-04T00:36:41;96428.44;;;0.34;100.00
57606;BME280;43430;48.204;11.556;2023-03-04T00:39:09;96423.25;;;0.34;100.00
57606;BME280;43430;48.204;11.556;2023-03-04T00:41:35;96426.44;;;0.28;100.00
57606;BME280;43430;48.204;11.556;2023-03-04T00:44:00;96425.63;;;0.28;100.00
57606;BME280;43430;48.204;11.556;2023-03-04T00:46:25;96425.63;;;0.28;100.00
57606;BME280;43430;48.204;11.556;2023-03-04T00:48:51;96431.00;;;0.16;100.00
57606;BME280;43430;48.204;11.556;2023-03-04T00:51:16;96431.16;;;0.15;100.00
57606;BME280;43430;48.204;11.556;2023-03-04T00:53:41;96426.50;;;0.18;100.00
57606;BME280;43430;48.204;11.556;2023-03-04T00:56:07;96430.25;;;0.06;100.00
57606;BME280;43430;48.204;11.556;2023-03-04T00:58:32;96427.31;;;-0.09;100.00
57606;BME280;43430;48.204;11.556;2023-03-04T01:00:57;96432.59;;;-0.01;100.00
57606;BME280;43430;48.204;11.556;2023-03-04T01:03:23;96426.31;;;0.02;100.00
57606;BME280;43430;48.204;11.556;2023-03-04T01:05:51;96423.28;;;0.07;100.00
57606;BME280;43430;48.204;11.556;2023-03-04T01:08:16;96412.38;;;0.03;100.00
57606;BME280;43430;48.204;11.556;2023-03-04T01:10:41;96408.69;;;0.06;100.00
57606;BME280;43430;48.204;11.556;2023-03-04T01:13:07;96405.00;;;0.08;100.00
57606;BME280;43430;48.204;11.556;2023-03-04T01:15:32;96405.00;;;0.08;100.00
57606;BME280;43430;48.204;11.556;2023-03-04T01:17:58;96401.34;;;0.01;100.00
57606;BME280;43430;48.204;11.556;2023-03-04T01:20:23;96402.84;;;0.04;100.00
57606;BME280;43430;48.204;11.556;2023-03-04T01:22:48;96402.97;;;0.02;100.00
57606;BME280;43430;48.204;11.556;2023-03-04T01:25:14;96404.28;;;-0.12;100.00
57606;BME280;43430;48.204;11.556;2023-03-04T01:27:39;96394.69;;;-0.02;100.00
57606;BME280;43430;48.204;11.556;2023-03-04T01:30:05;96397.03;;;-0.08;100.00
57606;BME280;43430;48.204;11.556;2023-03-04T01:32:30;96393.78;;;-0.10;100.00
57606;BME280;43430;48.204;11.556;2023-03-04T01:34:56;96398.34;;;-0.22;100.00
57606;BME280;43430;48.204;11.556;2023-03-04T01:37:21;96396.03;;;-0.25;100.00
57606;BME280;43430;48.204;11.556;2023-03-04T01:39:46;96396.19;;;-0.27;100.00
57606;BME280;43430;48.204;11.556;2023-03-04T01:42:22;96389.75;;;-0.22;100.00
57606;BME280;43430;48.204;11.556;2023-03-04T01:44:50;96389.59;;;-0.21;100.00
57606;BME280;43430;48.204;11.556;2023-03-04T01:47:16;96388.94;;;-0.23;100.00
57606;BME280;43430;48.204;11.556;2023-03-04T01:49:42;96388.00;;;-0.32;100.00
57606;BME280;43430;48.204;11.556;2023-03-04T01:52:11;96380.16;;;-0.40;100.00
57606;BME280;43430;48.204;11.556;2023-03-04T01:54:37;96383.34;;;-0.28;100.00
57606;BME280;43430;48.204;11.556;2023-03-04T01:57:19;96382.59;;;-0.38;100.00
57606;BME280;43430;48.204;11.556;2023-03-04T01:59:45;96382.66;;;-0.48;100.00
57606;BME280;43430;48.204;11.556;2023-03-04T02:02:12;96376.50;;;-0.47;100.00
57606;BME280;43430;48.204;11.556;2023-03-04T02:04:39;96375.50;;;-0.36;100.00
57606;BME280;43430;48.204;11.556;2023-03-04T02:07:05;96371.94;;;-0.35;100.00
57606;BME280;43430;48.204;11.556;2023-03-04T02:09:32;96369.50;;;-0.37;100.00
57606;BME280;43430;48.204;11.556;2023-03-04T02:11:58;96366.22;;;-0.39;100.00
57606;BME280;43430;48.204;11.556;2023-03-04T02:14:24;96366.16;;;-0.47;100.00
57606;BME280;43430;48.204;11.556;2023-03-04T02:16:50;96364.38;;;-0.46;100.00
57606;BME280;43430;48.204;11.556;2023-03-04T02:19:54;96360.03;;;-0.56;100.00
57606;BME280;43430;48.204;11.556;2023-03-04T02:22:16;96364.00;;;-0.52;100.00
57606;BME280;43430;48.204;11.556;2023-03-04T02:24:45;96361.69;;;-0.55;100.00
57606;BME280;43430;48.204;11.556;2023-03-04T02:27:12;96361.19;;;-0.68;100.00
57606;BME280;43430;48.204;11.556;2023-03-04T02:29:38;96364.06;;;-0.71;100.00
57606;BME280;43430;48.204;11.556;2023-03-04T02:32:04;96360.78;;;-0.73;100.00
57606;BME280;43430;48.204;11.556;2023-03-04T02:34:32;96353.78;;;-0.63;100.00
57606;BME280;43430;48.204;11.556;2023-03-04T02:36:59;96358.03;;;-0.62;100.00
57606;BME280;43430;48.204;11.556;2023-03-04T02:39:34;96353.50;;;-0.60;100.00
57606;BME280;43430;48.204;11.556;2023-03-04T02:42:01;96362.53;;;-0.64;100.00
57606;BME280;43430;48.204;11.556;2023-03-04T02:44:29;96364.16;;;-0.63;100.00
57606;BME280;43430;48.204;11.556;2023-03-04T02:46:55;96360.56;;;-0.52;100.00
57606;BME280;43430;48.204;11.556;2023-03-04T02:49:22;96371.81;;;-0.71;100.00
57606;BME280;43430;48.204;11.556;2023-03-04T02:51:52;96371.03;;;-0.81;100.00
57606;BME280;43430;48.204;11.556;2023-03-04T02:54:23;96367.22;;;-0.77;100.00
57606;BME280;43430;48.204;11.556;2023-03-04T02:56:53;96370.56;;;-0.67;100.00
57606;BME280;43430;48.204;11.556;2023-03-04T02:59:20;96364.97;;;-0.62;100.00
57606;BME280;43430;48.204;11.556;2023-03-04T03:01:46;96371.53;;;-0.68;100.00
57606;BME280;43430;48.204;11.556;2023-03-04T03:04:12;96366.94;;;-0.74;100.00
57606;BME280;43430;48.204;11.556;2023-03-04T03:06:38;96362.56;;;-0.74;100.00
57606;BME280;43430;48.204;11.556;2023-03-04T03:09:03;96366.16;;;-0.94;100.00
57606;BME280;43430;48.204;11.556;2023-03-04T03:11:28;96363.44;;;-0.92;100.00
57606;BME280;43430;48.204;11.556;2023-03-04T03:13:54;96365.78;;;-0.99;100.00
57606;BME280;43430;48.204;11.556;2023-03-04T03:16:19;96367.25;;;-0.97;100.00
57606;BME280;43430;48.204;11.556;2023-03-04T03:18:45;96372.13;;;-0.84;100.00
57606;BME280;43430;48.204;11.556;2023-03-04T03:21:10;96370.22;;;-0.82;100.00
57606;BME280;43430;48.204;11.556;2023-03-04T03:23:35;96367.75;;;-0.74;100.00
57606;BME280;43430;48.204;11.556;2023-03-04T03:26:01;96374.97;;;-0.77;100.00
57606;BME280;43430;48.204;11.556;2023-03-04T03:28:27;96373.19;;;-0.77;100.00
57606;BME280;43430;48.204;11.556;2023-03-04T03:30:52;96367.50;;;-0.90;100.00
57606;BME280;43430;48.204;11.556;2023-03-04T03:33:18;96360.59;;;-0.89;100.00
57606;BME280;43430;48.204;11.556;2023-03-04T03:35:43;96358.84;;;-0.99;100.00
57606;BME280;43430;48.204;11.556;2023-03-04T03:38:08;96365.91;;;-1.01;100.00
57606;BME280;43430;48.204;11.556;2023-03-04T03:40:34;96370.56;;;-1.04;100.00
57606;BME280;43430;48.204;11.556;2023-03-04T03:42:59;96350.66;;;-1.04;100.00
57606;BME280;43430;48.204;11.556;2023-03-04T03:45:25;96357.59;;;-1.04;100.00
57606;BME280;43430;48.204;11.556;2023-03-04T03:47:50;96358.69;;;-1.07;100.00
57606;BME280;43430;48.204;11.556;2023-03-04T03:50:15;96357.34;;;-1.01;100.00
57606;BME280;43430;48.204;11.556;2023-03-04T03:52:41;96353.13;;;-1.02;100.00
57606;BME280;43430;48.204;11.556;2023-03-04T03:55:06;96352.06;;;-1.09;100.00
57606;BME280;43430;48.204;11.556;2023-03-04T03:57:32;96357.22;;;-1.09;100.00
57606;BME280;43430;48.204;11.556;2023-03-04T03:59:57;96358.31;;;-1.12;100.00
57606;BME280;43430;48.204;11.556;2023-03-04T04:02:23;96361.59;;;-1.20;100.00
57606;BME280;43430;48.204;11.556;2023-03-04T04:04:48;96359.72;;;-1.27;100.00
57606;BME280;43430;48.204;11.556;2023-03-04T04:07:14;96360.22;;;-1.14;100.00
57606;BME280;43430;48.204;11.556;2023-03-04T04:09:39;96364.19;;;-1.10;100.00
57606;BME280;43430;48.204;11.556;2023-03-04T04:12:05;96352.34;;;-1.12;100.00
57606;BME280;43430;48.204;11.556;2023-03-04T04:14:31;96349.31;;;-1.17;100.00
57606;BME280;43430;48.204;11.556;2023-03-04T04:16:56;96357.09;;;-1.17;100.00
57606;BME280;43430;48.204;11.556;2023-03-04T04:19:22;96357.94;;;-1.17;100.00
57606;BME280;43430;48.204;11.556;2023-03-04T04:21:47;96358.06;;;-1.18;100.00
57606;BME280;43430;48.204;11.556;2023-03-04T04:24:13;96359.19;;;-1.31;100.00
57606;BME280;43430;48.204;11.556;2023-03-04T04:26:39;96355.75;;;-1.31;100.00
57606;BME280;43430;48.204;11.556;2023-03-04T04:29:04;96362.00;;;-1.24;100.00
57606;BME280;43430;48.204;11.556;2023-03-04T04:31:30;96356.97;;;-1.26;100.00
57606;BME280;43430;48.204;11.556;2023-03-04T04:33:55;96360.53;;;-1.27;100.00
57606;BME280;43430;48.204;11.556;2023-03-04T04:36:22;96363.13;;;-1.27;100.00
57606;BME280;43430;48.204;11.556;2023-03-04T04:38:47;96356.44;;;-1.29;100.00
57606;BME280;43430;48.204;11.556;2023-03-04T04:41:25;96353.69;;;-1.28;100.00
57606;BME280;43430;48.204;11.556;2023-03-04T04:43:51;96353.75;;;-1.37;100.00
57606;BME280;43430;48.204;11.556;2023-03-04T04:46:17;96356.19;;;-1.36;100.00
57606;BME280;43430;48.204;11.556;2023-03-04T04:48:43;96347.59;;;-1.36;100.00
57606;BME280;43430;48.204;11.556;2023-03-04T04:51:08;96347.72;;;-1.28;100.00
57606;BME280;43430;48.204;11.556;2023-03-04T04:53:34;96346.34;;;-1.23;100.00
57606;BME280;43430;48.204;11.556;2023-03-04T04:55:59;96352.34;;;-1.22;100.00
57606;BME280;43430;48.204;11.556;2023-03-04T04:58:25;96350.31;;;-1.28;100.00
57606;BME280;43430;48.204;11.556;2023-03-04T05:00:50;96349.47;;;-1.19;100.00
57606;BME280;43430;48.204;11.556;2023-03-04T05:03:16;96345.84;;;-1.36;100.00
57606;BME280;43430;48.204;11.556;2023-03-04T05:05:41;96352.22;;;-1.30;100.00
57606;BME280;43430;48.204;11.556;2023-03-04T05:08:07;96352.91;;;-1.38;100.00
57606;BME280;43430;48.204;11.556;2023-03-04T05:10:32;96359.72;;;-1.37;100.00
57606;BME280;43430;48.204;11.556;2023-03-04T05:12:58;96357.69;;;-1.33;100.00
57606;BME280;43430;48.204;11.556;2023-03-04T05:15:23;96362.69;;;-1.32;100.00
57606;BME280;43430;48.204;11.556;2023-03-04T05:17:49;96362.69;;;-1.22;100.00
57606;BME280;43430;48.204;11.556;2023-03-04T05:20:14;96360.00;;;-1.30;100.00
57606;BME280;43430;48.204;11.556;2023-03-04T05:22:40;96360.00;;;-1.30;100.00
57606;BME280;43430;48.204;11.556;2023-03-04T05:25:05;96356.44;;;-1.39;100.00
57606;BME280;43430;48.204;11.556;2023-03-04T05:27:31;96354.28;;;-1.44;100.00
57606;BME280;43430;48.204;11.556;2023-03-04T05:29:56;96354.94;;;-1.41;100.00
57606;BME280;43430;48.204;11.556;2023-03-04T05:32:25;96356.31;;;-1.37;100.00
57606;BME280;43430;48.204;11.556;2023-03-04T05:34:50;96356.72;;;-1.42;100.00
57606;BME280;43430;48.204;11.556;2023-03-04T05:37:15;96356.03;;;-1.34;100.00
57606;BME280;43430;48.204;11.556;2023-03-04T05:39:41;96357.00;;;-1.35;100.00
57606;BME280;43430;48.204;11.556;2023-03-04T05:42:06;96357.69;;;-1.33;100.00
57606;BME280;43430;48.204;11.556;2023-03-04T05:44:31;96359.84;;;-1.38;100.00
57606;BME280;43430;48.204;11.556;2023-03-04T05:46:57;96366.38;;;-1.34;100.00
57606;BME280;43430;48.204;11.556;2023-03-04T05:49:22;96361.88;;;-1.32;100.00
57606;BME280;43430;48.204;11.556;2023-03-04T05:51:48;96358.22;;;-1.30;100.00
57606;BME280;43430;48.204;11.556;2023-03-04T05:54:13;96362.84;;;-1.33;100.00
57606;BME280;43430;48.204;11.556;2023-03-04T05:56:38;96360.13;;;-1.41;100.00
57606;BME280;43430;48.204;11.556;2023-03-04T05:59:04;96365.72;;;-1.46;100.00
57606;BME280;43430;48.204;11.556;2023-03-04T06:01:29;96365.56;;;-1.45;100.00
57606;BME280;43430;48.204;11.556;2023-03-04T06:03:55;96362.59;;;-1.40;100.00
57606;BME280;43430;48.204;11.556;2023-03-04T06:06:21;96366.53;;;-1.46;100.00
57606;BME280;43430;48.204;11.556;2023-03-04T06:08:46;96374.00;;;-1.42;100.00
57606;BME280;43430;48.204;11.556;2023-03-04T06:11:12;96373.59;;;-1.38;100.00
57606;BME280;43430;48.204;11.556;2023-03-04T06:13:37;96372.50;;;-1.35;100.00
57606;BME280;43430;48.204;11.556;2023-03-04T06:16:03;96379.59;;;-1.37;100.00
57606;BME280;43430;48.204;11.556;2023-03-04T06:18:29;96373.19;;;-1.33;100.00
57606;BME280;43430;48.204;11.556;2023-03-04T06:20:59;96375.91;;;-1.35;100.00
57606;BME280;43430;48.204;11.556;2023-03-04T06:23:25;96380.00;;;-1.32;100.00
57606;BME280;43430;48.204;11.556;2023-03-04T06:25:52;96379.19;;;-1.23;100.00
57606;BME280;43430;48.204;11.556;2023-03-04T06:28:18;96382.94;;;-1.08;100.00
57606;BME280;43430;48.204;11.556;2023-03-04T06:30:44;96382.69;;;-1.05;100.00
57606;BME280;43430;48.204;11.556;2023-03-04T06:33:12;96385.53;;;-1.08;100.00
57606;BME280;43430;48.204;11.556;2023-03-04T06:35:38;96385.53;;;-1.08;100.00
57606;BME280;43430;48.204;11.556;2023-03-04T06:38:03;96383.38;;;-1.03;100.00
57606;BME280;43430;48.204;11.556;2023-03-04T06:40:28;96388.38;;;-1.01;100.00
57606;BME280;43430;48.204;11.556;2023-03-04T06:42:54;96389.59;;;-0.86;100.00
57606;BME280;43430;48.204;11.556;2023-03-04T06:45:19;96390.97;;;-0.91;100.00
57606;BME280;43430;48.204;11.556;2023-03-04T06:47:45;96390.13;;;-0.82;100.00
57606;BME280;43430;48.204;11.556;2023-03-04T06:50:12;96388.88;;;-0.78;100.00
57606;BME280;43430;48.204;11.556;2023-03-04T06:52:38;96389.16;;;-0.81;100.00
57606;BME280;43430;48.204;11.556;2023-03-04T06:55:04;96389.97;;;-0.81;100.00
57606;BME280;43430;48.204;11.556;2023-03-04T06:57:30;96392.28;;;-0.78;100.00
57606;BME280;43430;48.204;11.556;2023-03-04T06:59:55;96393.59;;;-0.64;100.00
57606;BME280;43430;48.204;11.556;2023-03-04T07:02:21;96388.53;;;-0.56;100.00
57606;BME280;43430;48.204;11.556;2023-03-04T07:04:47;96396.28;;;-0.56;100.00
57606;BME280;43430;48.204;11.556;2023-03-04T07:07:12;96389.69;;;-0.40;100.00
57606;BME280;43430;48.204;11.556;2023-03-04T07:09:38;96390.19;;;-0.27;100.00
57606;BME280;43430;48.204;11.556;2023-03-04T07:12:03;96389.13;;;-0.34;100.00
57606;BME280;43430;48.204;11.556;2023-03-04T07:14:29;96388.66;;;-0.47;100.00
57606;BME280;43430;48.204;11.556;2023-03-04T07:16:55;96392.28;;;-0.40;100.00
57606;BME280;43430;48.204;11.556;2023-03-04T07:19:20;96392.09;;;-0.29;100.00
57606;BME280;43430;48.204;11.556;2023-03-04T07:21:46;96394.94;;;-0.22;100.00
57606;BME280;43430;48.204;11.556;2023-03-04T07:24:43;96397.75;;;-0.43;100.00
57606;BME280;43430;48.204;11.556;2023-03-04T07:27:16;96402.91;;;-0.34;100.00
57606;BME280;43430;48.204;11.556;2023-03-04T07:29:51;96408.16;;;-0.26;100.00
57606;BME280;43430;48.204;11.556;2023-03-04T07:35:58;96412.09;;;-0.21;100.00
57606;BME280;43430;48.204;11.556;2023-03-04T07:38:23;96410.31;;;-0.21;100.00
57606;BME280;43430;48.204;11.556;2023-03-04T07:41:30;96411.28;;;-0.22;100.00
57606;BME280;43430;48.204;11.556;2023-03-04T07:44:19;96416.19;;;-0.19;100.00
57606;BME280;43430;48.204;11.556;2023-03-04T07:46:55;96421.97;;;-0.07;100.00
57606;BME280;43430;48.204;11.556;2023-03-04T07:49:27;96423.28;;;0.07;100.00
57606;BME280;43430;48.204;11.556;2023-03-04T07:52:01;96428.16;;;0.10;100.00
57606;BME280;43430;48.204;11.556;2023-03-04T07:54:48;96429.75;;;0.20;100.00
57606;BME280;43430;48.204;11.556;2023-03-04T08:01:00;96426.28;;;0.30;100.00
57606;BME280;43430;48.204;11.556;2023-03-04T08:03:50;96419.19;;;0.32;100.00
57606;BME280;43430;48.204;11.556;2023-03-04T08:06:42;96428.59;;;0.33;100.00
57606;BME280;43430;48.204;11.556;2023-03-04T08:09:18;96433.41;;;0.45;100.00
57606;BME280;43430;48.204;11.556;2023-03-04T08:11:47;96431.47;;;0.47;100.00
57606;BME280;43430;48.204;11.556;2023-03-04T08:14:24;96425.78;;;0.44;100.00
57606;BME280;43430;48.204;11.556;2023-03-04T08:16:55;96422.00;;;0.38;100.00
57606;BME280;43430;48.204;11.556;2023-03-04T08:19:23;96424.94;;;0.26;100.00
57606;BME280;43430;48.204;11.556;2023-03-04T08:21:52;96431.34;;;0.31;100.00
57606;BME280;43430;48.204;11.556;2023-03-04T08:24:20;96425.53;;;0.37;100.00
57606;BME280;43430;48.204;11.556;2023-03-04T08:26:47;96425.41;;;0.57;100.00
57606;BME280;43430;48.204;11.556;2023-03-04T08:29:21;96428.28;;;0.71;100.00
57606;BME280;43430;48.204;11.556;2023-03-04T08:31:49;96425.06;;;0.69;100.00
57606;BME280;43430;48.204;11.556;2023-03-04T08:34:15;96415.69;;;0.77;100.00
57606;BME280;43430;48.204;11.556;2023-03-04T08:36:41;96419.34;;;0.66;100.00
57606;BME280;43430;48.204;11.556;2023-03-04T08:39:08;96415.19;;;0.73;100.00
57606;BME280;43430;48.204;11.556;2023-03-04T08:41:33;96423.03;;;0.81;100.00
57606;BME280;43430;48.204;11.556;2023-03-04T08:44:00;96423.22;;;1.06;100.00
57606;BME280;43430;48.204;11.556;2023-03-04T08:46:26;96414.09;;;1.02;100.00
57606;BME280;43430;48.204;11.556;2023-03-04T08:48:52;96415.22;;;0.99;100.00
57606;BME280;43430;48.204;11.556;2023-03-04T08:51:18;96419.81;;;1.05;100.00
57606;BME280;43430;48.204;11.556;2023-03-04T08:53:49;96412.41;;;1.10;100.00
57606;BME280;43430;48.204;11.556;2023-03-04T08:56:15;96411.47;;;0.93;100.00
57606;BME280;43430;48.204;11.556;2023-03-04T08:58:41;96405.63;;;1.00;100.00
57606;BME280;43430;48.204;11.556;2023-03-04T09:01:09;96406.06;;;1.13;100.00
57606;BME280;43430;48.204;11.556;2023-03-04T09:03:38;96407.28;;;1.27;100.00
57606;BME280;43430;48.204;11.556;2023-03-04T09:06:04;96403.66;;;1.19;100.00
57606;BME280;43430;48.204;11.556;2023-03-04T09:08:39;96399.75;;;1.41;100.00
57606;BME280;43430;48.204;11.556;2023-03-04T09:11:08;96399.31;;;1.54;100.00
57606;BME280;43430;48.204;11.556;2023-03-04T09:13:34;96396.28;;;1.59;100.00
57606;BME280;43430;48.204;11.556;2023-03-04T09:16:00;96391.59;;;1.36;100.00
57606;BME280;43430;48.204;11.556;2023-03-04T09:18:31;96398.91;;;1.41;100.00
57606;BME280;43430;48.204;11.556;2023-03-04T09:20:56;96390.41;;;1.57;100.00
57606;BME280;43430;48.204;11.556;2023-03-04T09:23:21;96392.81;;;1.93;100.00
57606;BME280;43430;48.204;11.556;2023-03-04T09:25:47;96390.50;;;1.81;100.00
57606;BME280;43430;48.204;11.556;2023-03-04T09:28:16;96383.06;;;1.86;100.00
57606;BME280;43430;48.204;11.556;2023-03-04T09:30:45;96392.09;;;1.74;100.00
57606;BME280;43430;48.204;11.556;2023-03-04T09:33:21;96383.75;;;1.97;100.00
57606;BME280;43430;48.204;11.556;2023-03-04T09:35:49;96375.97;;;2.05;100.00
57606;BME280;43430;48.204;11.556;2023-03-04T09:38:15;96382.16;;;2.12;100.00
57606;BME280;43430;48.204;11.556;2023-03-04T09:40:45;96377.13;;;2.19;100.00
57606;BME280;43430;48.204;11.556;2023-03-04T09:43:38;96374.03;;;2.23;100.00
57606;BME280;43430;48.204;11.556;2023-03-04T09:46:08;96366.91;;;2.25;100.00
57606;BME280;43430;48.204;11.556;2023-03-04T09:48:42;96365.78;;;2.44;100.00
57606;BME280;43430;48.204;11.556;2023-03-04T09:54:07;96359.78;;;2.35;100.00
57606;BME280;43430;48.204;11.556;2023-03-04T09:56:38;96357.50;;;2.57;100.00
57606;BME280;43430;48.204;11.556;2023-03-04T09:59:18;96353.28;;;2.80;100.00
57606;BME280;43430;48.204;11.556;2023-03-04T10:02:25;96350.19;;;2.60;100.00
57606;BME280;43430;48.204;11.556;2023-03-04T10:04:58;96346.59;;;2.78;100.00
57606;BME280;43430;48.204;11.556;2023-03-04T10:07:36;96340.75;;;2.84;100.00
57606;BME280;43430;48.204;11.556;2023-03-04T10:10:31;96338.78;;;2.86;100.00
57606;BME280;43430;48.204;11.556;2023-03-04T10:13:12;96337.44;;;3.15;100.00
57606;BME280;43430;48.204;11.556;2023-03-04T10:15:42;96338.28;;;3.07;100.00
57606;BME280;43430;48.204;11.556;2023-03-04T10:18:46;96331.94;;;3.01;100.00
57606;BME280;43430;48.204;11.556;2023-03-04T10:21:25;96327.16;;;3.13;100.00
57606;BME280;43430;48.204;11.556;2023-03-04T10:23:56;96324.53;;;3.29;100.00
57606;BME280;43430;48.204;11.556;2023-03-04T10:26:32;96321.72;;;3.39;100.00
57606;BME280;43430;48.204;11.556;2023-03-04T10:28:57;96326.19;;;3.30;100.00
57606;BME280;43430;48.204;11.556;2023-03-04T10:31:36;96318.97;;;3.32;100.00
57606;BME280;43430;48.204;11.556;2023-03-04T10:34:03;96315.66;;;3.47;100.00
57606;BME280;43430;48.204;11.556;2023-03-04T10:36:58;96318.13;;;3.40;100.00
57606;BME280;43430;48.204;11.556;2023-03-04T10:39:36;96313.84;;;3.55;100.00
57606;BME280;43430;48.204;11.556;2023-03-04T10:42:22;96308.19;;;3.83;100.00
57606;BME280;43430;48.204;11.556;2023-03-04T10:44:59;96302.91;;;3.91;100.00
57606;BME280;43430;48.204;11.556;2023-03-04T10:47:36;96298.94;;;4.03;100.00
57606;BME280;43430;48.204;11.556;2023-03-04T10:50:24;96295.25;;;4.21;100.00
57606;BME280;43430;48.204;11.556;2023-03-04T10:56:02;96292.41;;;4.31;100.00
57606;BME280;43430;48.204;11.556;2023-03-04T10:58:30;96296.41;;;4.18;100.00
57606;BME280;43430;48.204;11.556;2023-03-04T11:01:01;96298.41;;;4.08;100.00
57606;BME280;43430;48.204;11.556;2023-03-04T11:03:30;96287.50;;;4.04;100.00
57606;BME280;43430;48.204;11.556;2023-03-04T11:06:19;96293.66;;;4.12;100.00
57606;BME280;43430;48.204;11.556;2023-03-04T11:11:41;96285.03;;;4.11;100.00
57606;BME280;43430;48.204;11.556;2023-03-04T11:17:00;96276.41;;;4.34;100.00
57606;BME280;43430;48.204;11.556;2023-03-04T11:19:47;96280.63;;;4.35;100.00
57606;BME280;43430;48.204;11.556;2023-03-04T11:22:16;96277.44;;;4.47;100.00
57606;BME280;43430;48.204;11.556;2023-03-04T11:24:55;96274.63;;;4.49;100.00
57606;BME280;43430;48.204;11.556;2023-03-04T11:27:43;96278.50;;;4.53;100.00
57606;BME280;43430;48.204;11.556;2023-03-04T11:30:43;96270.88;;;4.51;100.00
57606;BME280;43430;48.204;11.556;2023-03-04T11:33:20;96267.56;;;4.72;100.00
57606;BME280;43430;48.204;11.556;2023-03-04T11:35:54;96274.16;;;4.83;100.00
57606;BME280;43430;48.204;11.556;2023-03-04T11:38:35;96268.94;;;4.98;100.00
57606;BME280;43430;48.204;11.556;2023-03-04T11:41:13;96262.81;;;4.91;100.00
57606;BME280;43430;48.204;11.556;2023-03-04T11:43:42;96276.41;;;4.71;100.00
57606;BME280;43430;48.204;11.556;2023-03-04T12:03:44;96249.69;;;4.99;100.00
57606;BME280;43430;48.204;11.556;2023-03-04T12:14:10;96239.47;;;5.04;100.00
57606;BME280;43430;48.204;11.556;2023-03-04T12:16:54;96236.88;;;4.89;100.00
57606;BME280;43430;48.204;11.556;2023-03-04T12:19:40;96230.09;;;4.80;100.00
57606;BME280;43430;48.204;11.556;2023-03-04T12:22:28;96229.41;;;4.86;100.00
57606;BME280;43430;48.204;11.556;2023-03-04T12:25:12;96227.75;;;4.70;100.00
57606;BME280;43430;48.204;11.556;2023-03-04T12:31:06;96217.13;;;4.87;100.00
57606;BME280;43430;48.204;11.556;2023-03-04T12:40:26;96218.56;;;4.74;100.00
57606;BME280;43430;48.204;11.556;2023-03-04T12:46:10;96222.91;;;4.29;100.00
57606;BME280;43430;48.204;11.556;2023-03-04T12:48:59;96210.59;;;4.38;100.00
57606;BME280;43430;48.204;11.556;2023-03-04T12:54:30;96219.78;;;4.11;100.00
57606;BME280;43430;48.204;11.556;2023-03-04T12:57:06;96216.34;;;4.34;100.00
57606;BME280;43430;48.204;11.556;2023-03-04T12:59:38;96207.59;;;4.26;100.00
57606;BME280;43430;48.204;11.556;2023-03-04T13:05:22;96211.88;;;4.19;100.00
57606;BME280;43430;48.204;11.556;2023-03-04T13:08:07;96212.75;;;3.89;100.00
57606;BME280;43430;48.204;11.556;2023-03-04T13:10:35;96211.53;;;3.53;100.00
57606;BME280;43430;48.204;11.556;2023-03-04T13:13:01;96202.97;;;3.68;100.00
57606;BME280;43430;48.204;11.556;2023-03-04T13:15:33;96201.63;;;3.49;100.00
57606;BME280;43430;48.204;11.556;2023-03-04T13:20:43;96196.03;;;3.83;100.00
57606;BME280;43430;48.204;11.556;2023-03-04T13:38:22;96192.41;;;3.61;100.00
57606;BME280;43430;48.204;11.556;2023-03-04T13:43:43;96188.72;;;3.78;100.00
57606;BME280;43430;48.204;11.556;2023-03-04T13:49:03;96179.34;;;3.69;100.00
57606;BME280;43430;48.204;11.556;2023-03-04T13:51:42;96184.38;;;3.48;100.00
57606;BME280;43430;48.204;11.556;2023-03-04T13:54:24;96187.81;;;3.40;100.00
57606;BME280;43430;48.204;11.556;2023-03-04T13:57:16;96185.94;;;3.26;100.00
57606;BME280;43430;48.204;11.556;2023-03-04T13:59:44;96187.09;;;3.23;100.00
57606;BME280;43430;48.204;11.556;2023-03-04T14:02:12;96187.25;;;2.91;100.00
57606;BME280;43430;48.204;11.556;2023-03-04T14:04:42;96185.91;;;2.95;100.00
57606;BME280;43430;48.204;11.556;2023-03-04T14:10:00;96192.81;;;2.71;100.00
57606;BME280;43430;48.204;11.556;2023-03-04T14:12:31;96184.88;;;2.65;100.00
57606;BME280;43430;48.204;11.556;2023-03-04T14:15:00;96185.69;;;2.65;100.00
57606;BME280;43430;48.204;11.556;2023-03-04T14:17:30;96175.81;;;2.92;100.00
57606;BME280;43430;48.204;11.556;2023-03-04T14:19:58;96181.22;;;2.90;100.00
57606;BME280;43430;48.204;11.556;2023-03-04T14:22:29;96174.28;;;3.14;100.00
57606;BME280;43430;48.204;11.556;2023-03-04T14:28:16;96176.50;;;2.85;100.00
57606;BME280;43430;48.204;11.556;2023-03-04T14:30:43;96185.34;;;2.68;100.00